DLH52Y EDDC-EDDN
Flight info
| Callsign | DLH52Y |
|---|---|
| Flight time | 0h 34m |
| Altitude | 30000 |
| Route | ABKIS4E ABKIS Z715 KULOK Q244 PIVIR PIVIR1T |
| Aircraft | B722/M-SDFGRWY/S |
Departure
| Time | 2026-04-27 19:39 |
|---|---|
| Airport | Dresden Airport (EDDC) |
Arrival
| Time | 2026-04-27 20:13 |
|---|---|
| Airport | Nuremberg Airport (EDDN) |
| Time | Latitude | Longitude | Altitude | Speed | Heading |
|---|---|---|---|---|---|
| 2026-04-27 19:24 | 51.12666 | 13.76492 | 756 ft | 0 kts | 220° |
| 2026-04-27 19:31 | 51.12670 | 13.76497 | 756 ft | 2 kts | 220° |
| 2026-04-27 19:32 | 51.12686 | 13.76519 | 753 ft | 4 kts | 220° |
| 2026-04-27 19:32 | 51.12707 | 13.76549 | 752 ft | 4 kts | 224° |
| 2026-04-27 19:32 | 51.12719 | 13.76572 | 751 ft | 2 kts | 246° |
| 2026-04-27 19:32 | 51.12718 | 13.76589 | 751 ft | 2 kts | 294° |
| 2026-04-27 19:33 | 51.12712 | 13.76603 | 751 ft | 2 kts | 310° |
| 2026-04-27 19:33 | 51.12711 | 13.76605 | 751 ft | 0 kts | 311° |
| 2026-04-27 19:36 | 51.12721 | 13.76587 | 751 ft | 8 kts | 311° |
| 2026-04-27 19:36 | 51.12763 | 13.76509 | 754 ft | 9 kts | 310° |
| 2026-04-27 19:36 | 51.12792 | 13.76415 | 753 ft | 9 kts | 255° |
| 2026-04-27 19:36 | 51.12741 | 13.76321 | 751 ft | 14 kts | 220° |
| 2026-04-27 19:37 | 51.12662 | 13.76214 | 754 ft | 15 kts | 221° |
| 2026-04-27 19:37 | 51.12583 | 13.76103 | 759 ft | 15 kts | 221° |
| 2026-04-27 19:37 | 51.12504 | 13.75994 | 764 ft | 14 kts | 220° |
| 2026-04-27 19:37 | 51.12427 | 13.75889 | 767 ft | 15 kts | 221° |
| 2026-04-27 19:38 | 51.12378 | 13.75816 | 768 ft | 9 kts | 235° |
| 2026-04-27 19:38 | 51.12393 | 13.75673 | 768 ft | 19 kts | 292° |
| 2026-04-27 19:38 | 51.12462 | 13.75509 | 772 ft | 15 kts | 331° |
| 2026-04-27 19:38 | 51.12540 | 13.75572 | 770 ft | 16 kts | 41° |
| 2026-04-27 19:39 | 51.12813 | 13.75944 | 758 ft | 97 kts | 40° |
| 2026-04-27 19:39 | 51.13524 | 13.76920 | 833 ft | 158 kts | 41° |
| 2026-04-27 19:39 | 51.14342 | 13.78066 | 1674 ft | 159 kts | 42° |
| 2026-04-27 19:39 | 51.15153 | 13.79286 | 2549 ft | 161 kts | 41° |
| 2026-04-27 19:40 | 51.16005 | 13.80473 | 3402 ft | 163 kts | 40° |
| 2026-04-27 19:40 | 51.16877 | 13.81675 | 4230 ft | 174 kts | 40° |
| 2026-04-27 19:40 | 51.17926 | 13.83116 | 4814 ft | 219 kts | 40° |
| 2026-04-27 19:40 | 51.19152 | 13.84799 | 5497 ft | 239 kts | 41° |
| 2026-04-27 19:41 | 51.20195 | 13.86838 | 6396 ft | 249 kts | 66° |
| 2026-04-27 19:41 | 51.20505 | 13.89577 | 7262 ft | 257 kts | 94° |
| 2026-04-27 19:41 | 51.19930 | 13.92284 | 8145 ft | 263 kts | 121° |
| 2026-04-27 19:41 | 51.18778 | 13.94589 | 9046 ft | 269 kts | 134° |
| 2026-04-27 19:42 | 51.17415 | 13.96633 | 9955 ft | 275 kts | 137° |
| 2026-04-27 19:42 | 51.16023 | 13.98780 | 10807 ft | 280 kts | 134° |
| 2026-04-27 19:42 | 51.14649 | 14.01099 | 11558 ft | 300 kts | 133° |
| 2026-04-27 19:42 | 51.13145 | 14.03623 | 12122 ft | 331 kts | 134° |
| 2026-04-27 19:43 | 51.11442 | 14.06309 | 12693 ft | 357 kts | 140° |
| 2026-04-27 19:43 | 51.09243 | 14.08409 | 13264 ft | 381 kts | 159° |
| 2026-04-27 19:43 | 51.06610 | 14.09443 | 13840 ft | 401 kts | 177° |
| 2026-04-27 19:43 | 51.03783 | 14.09113 | 14363 ft | 417 kts | 196° |
| 2026-04-27 19:44 | 51.01088 | 14.07292 | 14873 ft | 420 kts | 215° |
| 2026-04-27 19:44 | 50.98748 | 14.04489 | 15387 ft | 420 kts | 224° |
| 2026-04-27 19:44 | 50.96640 | 14.01264 | 15908 ft | 421 kts | 229° |
| 2026-04-27 19:44 | 50.94634 | 13.97859 | 16412 ft | 423 kts | 230° |
| 2026-04-27 19:45 | 50.92618 | 13.94522 | 16926 ft | 426 kts | 227° |
| 2026-04-27 19:45 | 50.90417 | 13.91338 | 17483 ft | 428 kts | 224° |
| 2026-04-27 19:45 | 50.88185 | 13.88138 | 18187 ft | 431 kts | 226° |
| 2026-04-27 19:45 | 50.86075 | 13.84811 | 18838 ft | 434 kts | 228° |
| 2026-04-27 19:46 | 50.83919 | 13.81418 | 19460 ft | 438 kts | 227° |
| 2026-04-27 19:46 | 50.81685 | 13.78121 | 20087 ft | 441 kts | 226° |
| 2026-04-27 19:46 | 50.79702 | 13.74405 | 20223 ft | 437 kts | 240° |
| 2026-04-27 19:46 | 50.78282 | 13.70208 | 20216 ft | 439 kts | 248° |
| 2026-04-27 19:47 | 50.77092 | 13.65630 | 20207 ft | 457 kts | 252° |
| 2026-04-27 19:47 | 50.76116 | 13.60994 | 20218 ft | 448 kts | 255° |
| 2026-04-27 19:47 | 50.75127 | 13.56315 | 20225 ft | 448 kts | 252° |
| 2026-04-27 19:47 | 50.73964 | 13.51725 | 20227 ft | 448 kts | 250° |
| 2026-04-27 19:48 | 50.72807 | 13.47203 | 20220 ft | 448 kts | 252° |
| 2026-04-27 19:48 | 50.71773 | 13.42560 | 20222 ft | 447 kts | 253° |
| 2026-04-27 19:48 | 50.70743 | 13.37914 | 20222 ft | 448 kts | 252° |
| 2026-04-27 19:48 | 50.69596 | 13.33331 | 20220 ft | 448 kts | 250° |
| 2026-04-27 19:49 | 50.68460 | 13.28819 | 20220 ft | 448 kts | 252° |
| 2026-04-27 19:49 | 50.67400 | 13.24180 | 20223 ft | 447 kts | 253° |
| 2026-04-27 19:49 | 50.66340 | 13.19548 | 20223 ft | 448 kts | 252° |
| 2026-04-27 19:49 | 50.65192 | 13.14946 | 20214 ft | 458 kts | 251° |
| 2026-04-27 19:50 | 50.64035 | 13.10287 | 20222 ft | 461 kts | 252° |
| 2026-04-27 19:50 | 50.62905 | 13.05545 | 20223 ft | 462 kts | 251° |
| 2026-04-27 19:50 | 50.61596 | 13.00912 | 20226 ft | 463 kts | 246° |
| 2026-04-27 19:50 | 50.60037 | 12.96508 | 20206 ft | 466 kts | 242° |
| 2026-04-27 19:51 | 50.58398 | 12.92108 | 20209 ft | 465 kts | 244° |
| 2026-04-27 19:51 | 50.56946 | 12.87560 | 20209 ft | 464 kts | 248° |
| 2026-04-27 19:51 | 50.55593 | 12.82946 | 20212 ft | 464 kts | 246° |
| 2026-04-27 19:51 | 50.53891 | 12.78612 | 20211 ft | 468 kts | 236° |
| 2026-04-27 19:52 | 50.51864 | 12.74659 | 20208 ft | 470 kts | 232° |
| 2026-04-27 19:52 | 50.50421 | 12.72113 | 20209 ft | 470 kts | 231° |
| 2026-04-27 19:52 | 50.47517 | 12.67017 | 20212 ft | 470 kts | 232° |
| 2026-04-27 19:52 | 50.45438 | 12.63020 | 20210 ft | 469 kts | 234° |
| 2026-04-27 19:53 | 50.41187 | 12.55242 | 20208 ft | 470 kts | 231° |
| 2026-04-27 19:53 | 50.39023 | 12.51389 | 20206 ft | 469 kts | 233° |
| 2026-04-27 19:53 | 50.36939 | 12.47443 | 20203 ft | 469 kts | 234° |
| 2026-04-27 19:54 | 50.34868 | 12.43567 | 20205 ft | 469 kts | 232° |
| 2026-04-27 19:54 | 50.32695 | 12.39725 | 20202 ft | 470 kts | 231° |
| 2026-04-27 19:54 | 50.30536 | 12.35879 | 20198 ft | 470 kts | 232° |
| 2026-04-27 19:54 | 50.28437 | 12.31956 | 20198 ft | 469 kts | 233° |
| 2026-04-27 19:55 | 50.26320 | 12.28049 | 20205 ft | 470 kts | 232° |
| 2026-04-27 19:55 | 50.24189 | 12.24286 | 20150 ft | 450 kts | 231° |
| 2026-04-27 19:55 | 50.22177 | 12.20708 | 19674 ft | 435 kts | 232° |
| 2026-04-27 19:55 | 50.20220 | 12.17081 | 19183 ft | 434 kts | 233° |
| 2026-04-27 19:56 | 50.18260 | 12.13497 | 18645 ft | 433 kts | 232° |
| 2026-04-27 19:56 | 50.16291 | 12.10016 | 18102 ft | 430 kts | 231° |
| 2026-04-27 19:56 | 50.14324 | 12.06506 | 17533 ft | 426 kts | 232° |
| 2026-04-27 19:56 | 50.12404 | 12.03006 | 16979 ft | 422 kts | 232° |
| 2026-04-27 19:57 | 50.10485 | 11.99550 | 16434 ft | 419 kts | 231° |
| 2026-04-27 19:57 | 50.08564 | 11.96141 | 15897 ft | 416 kts | 231° |
| 2026-04-27 19:57 | 50.06674 | 11.92761 | 15369 ft | 411 kts | 232° |
| 2026-04-27 19:57 | 50.04832 | 11.89443 | 14850 ft | 408 kts | 231° |
| 2026-04-27 19:58 | 50.02969 | 11.86123 | 14278 ft | 402 kts | 231° |
| 2026-04-27 19:58 | 50.01194 | 11.82981 | 13691 ft | 367 kts | 231° |
| 2026-04-27 19:58 | 49.99541 | 11.80029 | 13105 ft | 364 kts | 231° |
| 2026-04-27 19:58 | 49.97886 | 11.77057 | 12572 ft | 362 kts | 231° |
| 2026-04-27 19:59 | 49.96240 | 11.74106 | 12051 ft | 360 kts | 231° |
| 2026-04-27 19:59 | 49.94596 | 11.71168 | 11545 ft | 359 kts | 231° |
| 2026-04-27 19:59 | 49.92943 | 11.68267 | 11043 ft | 356 kts | 232° |
| 2026-04-27 19:59 | 49.91439 | 11.65213 | 10536 ft | 356 kts | 231° |
| 2026-04-27 20:00 | 49.89746 | 11.62411 | 10174 ft | 354 kts | 227° |
| 2026-04-27 20:00 | 49.88021 | 11.59730 | 10175 ft | 354 kts | 228° |
| 2026-04-27 20:00 | 49.86386 | 11.56889 | 9736 ft | 341 kts | 231° |
| 2026-04-27 20:00 | 49.84723 | 11.54519 | 9144 ft | 312 kts | 213° |
| 2026-04-27 20:01 | 49.82764 | 11.53458 | 8537 ft | 296 kts | 191° |
| 2026-04-27 20:01 | 49.80737 | 11.53121 | 7965 ft | 291 kts | 185° |
| 2026-04-27 20:01 | 49.78715 | 11.52894 | 7390 ft | 288 kts | 185° |
| 2026-04-27 20:01 | 49.76716 | 11.52653 | 6821 ft | 285 kts | 185° |
| 2026-04-27 20:02 | 49.74775 | 11.52403 | 6256 ft | 281 kts | 185° |
| 2026-04-27 20:02 | 49.72838 | 11.52123 | 6008 ft | 277 kts | 185° |
| 2026-04-27 20:02 | 49.70941 | 11.51835 | 6003 ft | 276 kts | 185° |
| 2026-04-27 20:02 | 49.69034 | 11.51542 | 6002 ft | 276 kts | 185° |
| 2026-04-27 20:03 | 49.67105 | 11.51257 | 6003 ft | 274 kts | 183° |
| 2026-04-27 20:03 | 49.65209 | 11.51195 | 5996 ft | 276 kts | 178° |
| 2026-04-27 20:03 | 49.63376 | 11.51960 | 5999 ft | 275 kts | 148° |
| 2026-04-27 20:03 | 49.62034 | 11.54048 | 5998 ft | 274 kts | 117° |
| 2026-04-27 20:04 | 49.61493 | 11.56626 | 6013 ft | 240 kts | 101° |
| 2026-04-27 20:04 | 49.61237 | 11.59122 | 6001 ft | 224 kts | 99° |
| 2026-04-27 20:04 | 49.60996 | 11.61472 | 5986 ft | 237 kts | 99° |
| 2026-04-27 20:04 | 49.60816 | 11.63205 | 6008 ft | 244 kts | 99° |
| 2026-04-27 20:05 | 49.60374 | 11.66510 | 5995 ft | 234 kts | 113° |
| 2026-04-27 20:05 | 49.59304 | 11.68341 | 5984 ft | 236 kts | 153° |
| 2026-04-27 20:05 | 49.57695 | 11.68711 | 6009 ft | 237 kts | 187° |
| 2026-04-27 20:05 | 49.56072 | 11.68138 | 6010 ft | 239 kts | 195° |
| 2026-04-27 20:06 | 49.54460 | 11.67469 | 6019 ft | 238 kts | 193° |
| 2026-04-27 20:06 | 49.52872 | 11.66807 | 6014 ft | 238 kts | 194° |
| 2026-04-27 20:06 | 49.51289 | 11.66005 | 5936 ft | 242 kts | 206° |
| 2026-04-27 20:06 | 49.50129 | 11.64162 | 5574 ft | 246 kts | 244° |
| 2026-04-27 20:07 | 49.49589 | 11.61696 | 5277 ft | 246 kts | 255° |
| 2026-04-27 20:07 | 49.49151 | 11.59145 | 5012 ft | 245 kts | 254° |
| 2026-04-27 20:07 | 49.48709 | 11.56629 | 5016 ft | 242 kts | 254° |
| 2026-04-27 20:07 | 49.48269 | 11.54118 | 5018 ft | 243 kts | 254° |
| 2026-04-27 20:08 | 49.47835 | 11.51626 | 5018 ft | 244 kts | 254° |
| 2026-04-27 20:08 | 49.47541 | 11.49929 | 5019 ft | 242 kts | 254° |
| 2026-04-27 20:08 | 49.47109 | 11.47439 | 5017 ft | 243 kts | 254° |
| 2026-04-27 20:08 | 49.46688 | 11.44914 | 5019 ft | 243 kts | 256° |
| 2026-04-27 20:09 | 49.46423 | 11.42339 | 5016 ft | 243 kts | 267° |
| 2026-04-27 20:09 | 49.46591 | 11.39778 | 4950 ft | 245 kts | 281° |
| 2026-04-27 20:09 | 49.46965 | 11.37196 | 4638 ft | 247 kts | 282° |
| 2026-04-27 20:09 | 49.47265 | 11.34598 | 4303 ft | 245 kts | 278° |
| 2026-04-27 20:10 | 49.47475 | 11.32031 | 3973 ft | 246 kts | 277° |
| 2026-04-27 20:10 | 49.47718 | 11.29420 | 3647 ft | 246 kts | 279° |
| 2026-04-27 20:10 | 49.47999 | 11.26825 | 3313 ft | 242 kts | 281° |
| 2026-04-27 20:10 | 49.48245 | 11.24425 | 2977 ft | 214 kts | 279° |
| 2026-04-27 20:11 | 49.48425 | 11.22395 | 2703 ft | 172 kts | 279° |
| 2026-04-27 20:11 | 49.48601 | 11.20725 | 2500 ft | 148 kts | 282° |
| 2026-04-27 20:11 | 49.48743 | 11.19191 | 2318 ft | 146 kts | 279° |
| 2026-04-27 20:11 | 49.48895 | 11.17650 | 2133 ft | 146 kts | 283° |
| 2026-04-27 20:12 | 49.49058 | 11.16103 | 1936 ft | 146 kts | 280° |
| 2026-04-27 20:12 | 49.49187 | 11.14575 | 1732 ft | 140 kts | 281° |
| 2026-04-27 20:12 | 49.49360 | 11.13135 | 1550 ft | 137 kts | 281° |
| 2026-04-27 20:12 | 49.49487 | 11.11679 | 1368 ft | 135 kts | 278° |
| 2026-04-27 20:13 | 49.49623 | 11.10249 | 1144 ft | 136 kts | 281° |
| 2026-04-27 20:13 | 49.49769 | 11.08844 | 1037 ft | 126 kts | 279° |
| 2026-04-27 20:13 | 49.49867 | 11.07852 | 1037 ft | 78 kts | 278° |
| 2026-04-27 20:13 | 49.49927 | 11.07252 | 1030 ft | 41 kts | 278° |
| 2026-04-27 20:14 | 49.49919 | 11.07037 | 1023 ft | 15 kts | 217° |
| 2026-04-27 20:14 | 49.49831 | 11.07041 | 1022 ft | 13 kts | 159° |
| 2026-04-27 20:14 | 49.49790 | 11.07067 | 1025 ft | 0 kts | 156° |
| 2026-04-27 20:14 | 49.49786 | 11.07069 | 1025 ft | 3 kts | 154° |
| 2026-04-27 20:15 | 49.49760 | 11.07096 | 1024 ft | 7 kts | 134° |
| 2026-04-27 20:15 | 49.49740 | 11.07172 | 1026 ft | 9 kts | 104° |
| 2026-04-27 20:15 | 49.49704 | 11.07228 | 1029 ft | 10 kts | 172° |
| 2026-04-27 20:15 | 49.49646 | 11.07250 | 1027 ft | 9 kts | 124° |
| 2026-04-27 20:16 | 49.49627 | 11.07351 | 1028 ft | 8 kts | 99° |
| 2026-04-27 20:16 | 49.49618 | 11.07448 | 1031 ft | 10 kts | 98° |
| 2026-04-27 20:16 | 49.49606 | 11.07570 | 1032 ft | 13 kts | 98° |
| 2026-04-27 20:16 | 49.49583 | 11.07667 | 1032 ft | 5 kts | 159° |
| 2026-04-27 20:17 | 49.49543 | 11.07663 | 1031 ft | 3 kts | 188° |
| 2026-04-27 20:17 | 49.49541 | 11.07663 | 1030 ft | 0 kts | 188° |